sensor_id;sensor_type;location;lat;lon;timestamp;P1;durP1;ratioP1;P2;durP2;ratioP2
39102;SDS011;24847;48.218;16.414;2024-02-14T00:01:19;2.30;;;1.90;;
39102;SDS011;24847;48.218;16.414;2024-02-14T00:06:22;2.63;;;1.90;;
39102;SDS011;24847;48.218;16.414;2024-02-14T00:11:26;3.13;;;2.15;;
39102;SDS011;24847;48.218;16.414;2024-02-14T00:16:28;3.58;;;2.33;;
39102;SDS011;24847;48.218;16.414;2024-02-14T00:21:31;2.88;;;2.33;;
39102;SDS011;24847;48.218;16.414;2024-02-14T00:26:35;3.75;;;2.50;;
39102;SDS011;24847;48.218;16.414;2024-02-14T00:31:39;4.18;;;2.63;;
39102;SDS011;24847;48.218;16.414;2024-02-14T00:36:44;4.78;;;2.67;;
39102;SDS011;24847;48.218;16.414;2024-02-14T00:41:48;3.97;;;2.65;;
39102;SDS011;24847;48.218;16.414;2024-02-14T00:46:55;2.78;;;2.35;;
39102;SDS011;24847;48.218;16.414;2024-02-14T00:51:59;4.38;;;2.45;;
39102;SDS011;24847;48.218;16.414;2024-02-14T00:57:03;4.30;;;2.30;;
39102;SDS011;24847;48.218;16.414;2024-02-14T01:02:05;3.45;;;2.58;;
39102;SDS011;24847;48.218;16.414;2024-02-14T01:07:07;4.65;;;2.40;;
39102;SDS011;24847;48.218;16.414;2024-02-14T01:12:11;4.57;;;2.78;;
39102;SDS011;24847;48.218;16.414;2024-02-14T01:17:13;6.70;;;2.38;;
39102;SDS011;24847;48.218;16.414;2024-02-14T01:22:15;4.28;;;2.92;;
39102;SDS011;24847;48.218;16.414;2024-02-14T01:27:19;3.90;;;2.83;;
39102;SDS011;24847;48.218;16.414;2024-02-14T01:32:23;3.50;;;2.42;;
39102;SDS011;24847;48.218;16.414;2024-02-14T01:37:26;3.20;;;2.72;;
39102;SDS011;24847;48.218;16.414;2024-02-14T01:42:30;4.72;;;2.65;;
39102;SDS011;24847;48.218;16.414;2024-02-14T01:47:33;4.90;;;2.75;;
39102;SDS011;24847;48.218;16.414;2024-02-14T01:52:35;5.93;;;2.70;;
39102;SDS011;24847;48.218;16.414;2024-02-14T01:57:39;3.42;;;2.28;;
39102;SDS011;24847;48.218;16.414;2024-02-14T02:02:41;4.72;;;2.95;;
39102;SDS011;24847;48.218;16.414;2024-02-14T02:07:43;4.95;;;3.20;;
39102;SDS011;24847;48.218;16.414;2024-02-14T02:12:49;3.70;;;2.45;;
39102;SDS011;24847;48.218;16.414;2024-02-14T02:17:52;4.53;;;2.53;;
39102;SDS011;24847;48.218;16.414;2024-02-14T02:22:55;4.30;;;2.25;;
39102;SDS011;24847;48.218;16.414;2024-02-14T02:27:57;3.35;;;2.47;;
39102;SDS011;24847;48.218;16.414;2024-02-14T02:33:00;3.15;;;2.30;;
39102;SDS011;24847;48.218;16.414;2024-02-14T02:38:04;3.63;;;2.17;;
39102;SDS011;24847;48.218;16.414;2024-02-14T02:43:06;4.30;;;2.38;;
39102;SDS011;24847;48.218;16.414;2024-02-14T02:48:08;3.38;;;2.22;;
39102;SDS011;24847;48.218;16.414;2024-02-14T02:53:11;5.30;;;2.33;;
39102;SDS011;24847;48.218;16.414;2024-02-14T02:58:13;2.78;;;2.13;;
39102;SDS011;24847;48.218;16.414;2024-02-14T03:03:16;3.88;;;2.13;;
39102;SDS011;24847;48.218;16.414;2024-02-14T03:08:20;3.35;;;1.90;;
39102;SDS011;24847;48.218;16.414;2024-02-14T03:13:25;4.00;;;1.90;;
39102;SDS011;24847;48.218;16.414;2024-02-14T03:18:28;2.45;;;1.80;;
39102;SDS011;24847;48.218;16.414;2024-02-14T03:23:32;2.15;;;1.60;;
39102;SDS011;24847;48.218;16.414;2024-02-14T03:28:34;2.38;;;1.70;;
39102;SDS011;24847;48.218;16.414;2024-02-14T03:33:36;3.03;;;1.70;;
39102;SDS011;24847;48.218;16.414;2024-02-14T03:38:40;2.03;;;1.75;;
39102;SDS011;24847;48.218;16.414;2024-02-14T03:43:42;3.28;;;1.67;;
39102;SDS011;24847;48.218;16.414;2024-02-14T03:48:44;1.92;;;1.45;;
39102;SDS011;24847;48.218;16.414;2024-02-14T03:53:49;2.55;;;1.75;;
39102;SDS011;24847;48.218;16.414;2024-02-14T03:58:51;2.00;;;1.58;;
39102;SDS011;24847;48.218;16.414;2024-02-14T04:03:53;3.80;;;1.50;;
39102;SDS011;24847;48.218;16.414;2024-02-14T04:08:57;1.83;;;1.33;;
39102;SDS011;24847;48.218;16.414;2024-02-14T04:14:00;2.35;;;1.52;;
39102;SDS011;24847;48.218;16.414;2024-02-14T04:19:02;2.08;;;1.50;;
39102;SDS011;24847;48.218;16.414;2024-02-14T04:24:05;5.88;;;3.80;;
39102;SDS011;24847;48.218;16.414;2024-02-14T04:29:08;4.10;;;2.67;;
39102;SDS011;24847;48.218;16.414;2024-02-14T04:34:10;4.35;;;2.60;;
39102;SDS011;24847;48.218;16.414;2024-02-14T04:39:15;3.75;;;2.03;;
39102;SDS011;24847;48.218;16.414;2024-02-14T04:44:18;3.22;;;1.90;;
39102;SDS011;24847;48.218;16.414;2024-02-14T04:49:20;3.08;;;1.70;;
39102;SDS011;24847;48.218;16.414;2024-02-14T04:54:23;4.25;;;1.88;;
39102;SDS011;24847;48.218;16.414;2024-02-14T04:59:26;2.40;;;1.60;;
39102;SDS011;24847;48.218;16.414;2024-02-14T05:04:28;3.33;;;1.77;;
39102;SDS011;24847;48.218;16.414;2024-02-14T05:09:33;5.07;;;2.30;;
39102;SDS011;24847;48.218;16.414;2024-02-14T05:14:37;4.20;;;2.00;;
39102;SDS011;24847;48.218;16.414;2024-02-14T05:19:41;3.80;;;2.17;;
39102;SDS011;24847;48.218;16.414;2024-02-14T05:24:45;3.72;;;2.17;;
39102;SDS011;24847;48.218;16.414;2024-02-14T05:29:47;3.20;;;2.15;;
39102;SDS011;24847;48.218;16.414;2024-02-14T05:34:50;3.63;;;2.38;;
39102;SDS011;24847;48.218;16.414;2024-02-14T05:39:53;5.10;;;2.60;;
39102;SDS011;24847;48.218;16.414;2024-02-14T05:44:56;4.28;;;2.80;;
39102;SDS011;24847;48.218;16.414;2024-02-14T05:49:58;5.95;;;3.38;;
39102;SDS011;24847;48.218;16.414;2024-02-14T05:55:02;4.90;;;3.50;;
39102;SDS011;24847;48.218;16.414;2024-02-14T06:00:05;5.40;;;3.45;;
39102;SDS011;24847;48.218;16.414;2024-02-14T06:05:10;3.63;;;3.17;;
39102;SDS011;24847;48.218;16.414;2024-02-14T06:10:14;7.68;;;3.92;;
39102;SDS011;24847;48.218;16.414;2024-02-14T06:15:16;4.60;;;3.45;;
39102;SDS011;24847;48.218;16.414;2024-02-14T06:20:18;6.38;;;3.80;;
39102;SDS011;24847;48.218;16.414;2024-02-14T06:25:22;5.07;;;3.60;;
39102;SDS011;24847;48.218;16.414;2024-02-14T06:30:24;6.60;;;4.22;;
39102;SDS011;24847;48.218;16.414;2024-02-14T06:35:26;5.93;;;3.88;;
39102;SDS011;24847;48.218;16.414;2024-02-14T06:40:30;4.85;;;3.58;;
39102;SDS011;24847;48.218;16.414;2024-02-14T06:45:32;4.30;;;3.53;;
39102;SDS011;24847;48.218;16.414;2024-02-14T06:50:34;5.38;;;3.67;;
39102;SDS011;24847;48.218;16.414;2024-02-14T06:55:38;5.22;;;3.53;;
39102;SDS011;24847;48.218;16.414;2024-02-14T07:00:40;6.28;;;4.47;;
39102;SDS011;24847;48.218;16.414;2024-02-14T07:05:42;6.47;;;4.07;;
39102;SDS011;24847;48.218;16.414;2024-02-14T07:10:46;5.18;;;4.32;;
39102;SDS011;24847;48.218;16.414;2024-02-14T07:15:48;6.40;;;4.10;;
39102;SDS011;24847;48.218;16.414;2024-02-14T07:20:50;5.85;;;4.28;;
39102;SDS011;24847;48.218;16.414;2024-02-14T07:25:53;7.15;;;4.32;;
39102;SDS011;24847;48.218;16.414;2024-02-14T07:30:55;7.95;;;4.43;;
39102;SDS011;24847;48.218;16.414;2024-02-14T07:35:58;6.38;;;4.63;;
39102;SDS011;24847;48.218;16.414;2024-02-14T07:41:01;8.70;;;4.35;;
39102;SDS011;24847;48.218;16.414;2024-02-14T07:46:03;5.38;;;4.13;;
39102;SDS011;24847;48.218;16.414;2024-02-14T07:51:07;5.78;;;4.40;;
39102;SDS011;24847;48.218;16.414;2024-02-14T07:56:11;7.20;;;4.78;;
39102;SDS011;24847;48.218;16.414;2024-02-14T08:01:13;6.45;;;4.45;;
39102;SDS011;24847;48.218;16.414;2024-02-14T08:06:15;5.28;;;4.28;;
39102;SDS011;24847;48.218;16.414;2024-02-14T08:11:19;7.40;;;4.18;;
39102;SDS011;24847;48.218;16.414;2024-02-14T08:16:21;5.82;;;4.43;;
39102;SDS011;24847;48.218;16.414;2024-02-14T08:21:24;5.38;;;4.50;;
39102;SDS011;24847;48.218;16.414;2024-02-14T08:26:28;7.68;;;4.72;;
39102;SDS011;24847;48.218;16.414;2024-02-14T08:31:32;10.90;;;4.50;;
39102;SDS011;24847;48.218;16.414;2024-02-14T08:36:35;8.02;;;4.15;;
39102;SDS011;24847;48.218;16.414;2024-02-14T08:41:43;6.28;;;4.45;;
39102;SDS011;24847;48.218;16.414;2024-02-14T08:46:47;6.55;;;4.50;;
39102;SDS011;24847;48.218;16.414;2024-02-14T08:51:49;5.97;;;4.38;;
39102;SDS011;24847;48.218;16.414;2024-02-14T08:56:52;4.85;;;3.70;;
39102;SDS011;24847;48.218;16.414;2024-02-14T09:01:56;5.97;;;4.20;;
39102;SDS011;24847;48.218;16.414;2024-02-14T09:06:58;8.10;;;4.05;;
39102;SDS011;24847;48.218;16.414;2024-02-14T09:12:01;6.72;;;4.05;;
39102;SDS011;24847;48.218;16.414;2024-02-14T09:17:04;5.38;;;4.00;;
39102;SDS011;24847;48.218;16.414;2024-02-14T09:22:06;5.28;;;3.58;;
39102;SDS011;24847;48.218;16.414;2024-02-14T09:27:09;9.25;;;3.08;;
39102;SDS011;24847;48.218;16.414;2024-02-14T09:32:12;5.75;;;2.95;;
39102;SDS011;24847;48.218;16.414;2024-02-14T09:37:14;4.75;;;2.50;;
39102;SDS011;24847;48.218;16.414;2024-02-14T09:42:19;5.22;;;2.20;;
39102;SDS011;24847;48.218;16.414;2024-02-14T09:47:29;2.75;;;1.85;;
39102;SDS011;24847;48.218;16.414;2024-02-14T09:52:33;2.13;;;1.60;;
39102;SDS011;24847;48.218;16.414;2024-02-14T09:57:38;2.97;;;1.50;;
39102;SDS011;24847;48.218;16.414;2024-02-14T10:02:44;2.78;;;1.40;;
39102;SDS011;24847;48.218;16.414;2024-02-14T10:07:46;1.00;;;0.85;;
39102;SDS011;24847;48.218;16.414;2024-02-14T10:12:50;1.98;;;1.20;;
39102;SDS011;24847;48.218;16.414;2024-02-14T10:17:52;3.65;;;1.20;;
39102;SDS011;24847;48.218;16.414;2024-02-14T10:23:00;1.60;;;0.90;;
39102;SDS011;24847;48.218;16.414;2024-02-14T10:28:05;1.35;;;0.75;;
39102;SDS011;24847;48.218;16.414;2024-02-14T10:33:08;2.05;;;0.70;;
39102;SDS011;24847;48.218;16.414;2024-02-14T10:38:11;1.73;;;0.90;;
39102;SDS011;24847;48.218;16.414;2024-02-14T10:43:15;1.38;;;0.80;;
39102;SDS011;24847;48.218;16.414;2024-02-14T10:48:17;1.42;;;0.80;;
39102;SDS011;24847;48.218;16.414;2024-02-14T10:53:25;1.40;;;0.73;;
39102;SDS011;24847;48.218;16.414;2024-02-14T10:58:32;0.93;;;0.65;;
39102;SDS011;24847;48.218;16.414;2024-02-14T11:03:36;2.45;;;0.85;;
39102;SDS011;24847;48.218;16.414;2024-02-14T11:08:39;3.20;;;0.95;;
39102;SDS011;24847;48.218;16.414;2024-02-14T11:13:42;2.05;;;1.00;;
39102;SDS011;24847;48.218;16.414;2024-02-14T11:18:44;2.72;;;0.82;;
39102;SDS011;24847;48.218;16.414;2024-02-14T11:23:53;1.35;;;0.85;;
39102;SDS011;24847;48.218;16.414;2024-02-14T11:29:00;2.58;;;0.80;;
39102;SDS011;24847;48.218;16.414;2024-02-14T11:34:05;1.67;;;0.80;;
39102;SDS011;24847;48.218;16.414;2024-02-14T11:39:08;1.55;;;0.88;;
39102;SDS011;24847;48.218;16.414;2024-02-14T11:44:13;1.88;;;0.82;;
39102;SDS011;24847;48.218;16.414;2024-02-14T11:49:16;1.92;;;0.93;;
39102;SDS011;24847;48.218;16.414;2024-02-14T11:54:18;1.23;;;0.90;;
39102;SDS011;24847;48.218;16.414;2024-02-14T11:59:23;1.17;;;0.60;;
39102;SDS011;24847;48.218;16.414;2024-02-14T12:04:26;1.27;;;0.75;;
39102;SDS011;24847;48.218;16.414;2024-02-14T12:09:29;1.85;;;0.93;;
39102;SDS011;24847;48.218;16.414;2024-02-14T12:14:33;3.70;;;0.98;;
39102;SDS011;24847;48.218;16.414;2024-02-14T12:19:35;2.45;;;0.90;;
39102;SDS011;24847;48.218;16.414;2024-02-14T12:24:38;2.38;;;0.80;;
39102;SDS011;24847;48.218;16.414;2024-02-14T12:29:45;1.35;;;0.68;;
39102;SDS011;24847;48.218;16.414;2024-02-14T12:34:47;3.35;;;0.90;;
39102;SDS011;24847;48.218;16.414;2024-02-14T12:39:49;1.35;;;0.80;;
39102;SDS011;24847;48.218;16.414;2024-02-14T12:44:55;1.48;;;0.68;;
39102;SDS011;24847;48.218;16.414;2024-02-14T12:49:57;2.00;;;1.05;;
39102;SDS011;24847;48.218;16.414;2024-02-14T12:55:01;2.10;;;0.90;;
39102;SDS011;24847;48.218;16.414;2024-02-14T13:00:06;1.13;;;0.60;;
39102;SDS011;24847;48.218;16.414;2024-02-14T13:05:09;1.00;;;0.50;;
39102;SDS011;24847;48.218;16.414;2024-02-14T13:10:11;1.35;;;0.47;;
39102;SDS011;24847;48.218;16.414;2024-02-14T13:15:15;1.95;;;0.50;;
39102;SDS011;24847;48.218;16.414;2024-02-14T13:20:17;1.73;;;0.60;;
39102;SDS011;24847;48.218;16.414;2024-02-14T13:25:19;1.13;;;0.75;;
39102;SDS011;24847;48.218;16.414;2024-02-14T13:30:23;0.82;;;0.60;;
39102;SDS011;24847;48.218;16.414;2024-02-14T13:35:25;1.63;;;0.70;;
39102;SDS011;24847;48.218;16.414;2024-02-14T13:40:27;1.48;;;0.80;;
39102;SDS011;24847;48.218;16.414;2024-02-14T13:45:42;1.83;;;0.90;;
39102;SDS011;24847;48.218;16.414;2024-02-14T13:50:45;1.67;;;0.90;;
39102;SDS011;24847;48.218;16.414;2024-02-14T13:55:49;2.50;;;0.85;;
39102;SDS011;24847;48.218;16.414;2024-02-14T14:00:53;1.52;;;0.70;;
39102;SDS011;24847;48.218;16.414;2024-02-14T14:05:55;1.95;;;0.73;;
39102;SDS011;24847;48.218;16.414;2024-02-14T14:10:57;1.75;;;0.90;;
39102;SDS011;24847;48.218;16.414;2024-02-14T14:16:01;0.90;;;0.47;;
39102;SDS011;24847;48.218;16.414;2024-02-14T14:21:05;1.25;;;0.75;;
39102;SDS011;24847;48.218;16.414;2024-02-14T14:26:07;1.45;;;0.73;;
39102;SDS011;24847;48.218;16.414;2024-02-14T14:31:11;1.30;;;0.60;;
39102;SDS011;24847;48.218;16.414;2024-02-14T14:36:13;1.58;;;0.65;;
39102;SDS011;24847;48.218;16.414;2024-02-14T14:41:15;1.77;;;0.73;;
39102;SDS011;24847;48.218;16.414;2024-02-14T14:46:19;1.95;;;0.70;;
39102;SDS011;24847;48.218;16.414;2024-02-14T14:51:21;1.20;;;0.80;;
39102;SDS011;24847;48.218;16.414;2024-02-14T14:56:23;3.35;;;1.33;;
39102;SDS011;24847;48.218;16.414;2024-02-14T15:01:28;3.10;;;1.00;;
39102;SDS011;24847;48.218;16.414;2024-02-14T15:06:31;1.70;;;0.95;;
39102;SDS011;24847;48.218;16.414;2024-02-14T15:11:33;1.30;;;0.80;;
39102;SDS011;24847;48.218;16.414;2024-02-14T15:16:37;1.20;;;0.75;;
39102;SDS011;24847;48.218;16.414;2024-02-14T15:21:39;1.65;;;0.90;;
39102;SDS011;24847;48.218;16.414;2024-02-14T15:26:42;2.05;;;0.93;;
39102;SDS011;24847;48.218;16.414;2024-02-14T15:31:51;1.33;;;1.02;;
39102;SDS011;24847;48.218;16.414;2024-02-14T15:37:11;2.38;;;1.20;;
39102;SDS011;24847;48.218;16.414;2024-02-14T15:42:14;3.17;;;1.10;;
39102;SDS011;24847;48.218;16.414;2024-02-14T15:47:18;1.83;;;1.17;;
39102;SDS011;24847;48.218;16.414;2024-02-14T15:52:21;2.33;;;1.08;;
39102;SDS011;24847;48.218;16.414;2024-02-14T15:57:23;2.10;;;1.00;;
39102;SDS011;24847;48.218;16.414;2024-02-14T16:02:27;2.13;;;1.30;;
39102;SDS011;24847;48.218;16.414;2024-02-14T16:07:29;1.75;;;1.00;;
39102;SDS011;24847;48.218;16.414;2024-02-14T16:12:31;1.77;;;1.23;;
39102;SDS011;24847;48.218;16.414;2024-02-14T16:17:35;3.25;;;1.00;;
39102;SDS011;24847;48.218;16.414;2024-02-14T16:22:38;1.52;;;1.10;;
39102;SDS011;24847;48.218;16.414;2024-02-14T16:27:40;2.00;;;1.40;;
39102;SDS011;24847;48.218;16.414;2024-02-14T16:32:44;2.25;;;1.38;;
39102;SDS011;24847;48.218;16.414;2024-02-14T16:37:47;2.05;;;1.20;;
39102;SDS011;24847;48.218;16.414;2024-02-14T16:42:49;2.20;;;1.25;;
39102;SDS011;24847;48.218;16.414;2024-02-14T16:47:53;2.42;;;1.40;;
39102;SDS011;24847;48.218;16.414;2024-02-14T16:52:55;1.55;;;1.20;;
39102;SDS011;24847;48.218;16.414;2024-02-14T16:57:57;2.15;;;1.42;;
39102;SDS011;24847;48.218;16.414;2024-02-14T17:03:03;2.30;;;1.50;;
39102;SDS011;24847;48.218;16.414;2024-02-14T17:08:06;2.45;;;1.67;;
39102;SDS011;24847;48.218;16.414;2024-02-14T17:13:08;2.30;;;1.60;;
39102;SDS011;24847;48.218;16.414;2024-02-14T17:18:11;2.00;;;1.48;;
39102;SDS011;24847;48.218;16.414;2024-02-14T17:23:14;1.90;;;1.40;;
39102;SDS011;24847;48.218;16.414;2024-02-14T17:28:16;1.80;;;1.30;;
39102;SDS011;24847;48.218;16.414;2024-02-14T17:33:19;2.53;;;1.50;;
39102;SDS011;24847;48.218;16.414;2024-02-14T17:38:22;2.22;;;1.40;;
39102;SDS011;24847;48.218;16.414;2024-02-14T17:43:24;2.58;;;1.60;;
39102;SDS011;24847;48.218;16.414;2024-02-14T17:48:27;2.13;;;1.60;;
39102;SDS011;24847;48.218;16.414;2024-02-14T17:53:29;1.60;;;1.05;;
39102;SDS011;24847;48.218;16.414;2024-02-14T17:58:31;2.40;;;1.38;;
39102;SDS011;24847;48.218;16.414;2024-02-14T18:03:36;1.75;;;1.20;;
39102;SDS011;24847;48.218;16.414;2024-02-14T18:08:38;1.83;;;1.10;;
39102;SDS011;24847;48.218;16.414;2024-02-14T18:13:40;2.03;;;1.15;;
39102;SDS011;24847;48.218;16.414;2024-02-14T18:18:44;2.53;;;1.42;;
39102;SDS011;24847;48.218;16.414;2024-02-14T18:23:46;2.00;;;1.10;;
39102;SDS011;24847;48.218;16.414;2024-02-14T18:28:48;2.08;;;1.33;;
39102;SDS011;24847;48.218;16.414;2024-02-14T18:33:52;10.35;;;8.05;;
39102;SDS011;24847;48.218;16.414;2024-02-14T18:38:54;3.97;;;3.40;;
39102;SDS011;24847;48.218;16.414;2024-02-14T18:43:56;2.85;;;1.70;;
39102;SDS011;24847;48.218;16.414;2024-02-14T18:49:04;2.42;;;1.35;;
39102;SDS011;24847;48.218;16.414;2024-02-14T18:54:07;1.83;;;1.30;;
39102;SDS011;24847;48.218;16.414;2024-02-14T18:59:10;1.90;;;1.23;;
39102;SDS011;24847;48.218;16.414;2024-02-14T19:04:15;2.42;;;1.50;;
39102;SDS011;24847;48.218;16.414;2024-02-14T19:09:18;3.95;;;1.65;;
39102;SDS011;24847;48.218;16.414;2024-02-14T19:14:20;1.98;;;1.45;;
39102;SDS011;24847;48.218;16.414;2024-02-14T19:19:25;3.83;;;1.80;;
39102;SDS011;24847;48.218;16.414;2024-02-14T19:24:29;1.95;;;1.52;;
39102;SDS011;24847;48.218;16.414;2024-02-14T19:29:31;2.17;;;1.38;;
39102;SDS011;24847;48.218;16.414;2024-02-14T19:34:34;1.67;;;1.25;;
39102;SDS011;24847;48.218;16.414;2024-02-14T19:39:37;1.80;;;1.20;;
39102;SDS011;24847;48.218;16.414;2024-02-14T19:44:39;2.20;;;1.20;;
39102;SDS011;24847;48.218;16.414;2024-02-14T19:49:42;2.15;;;1.40;;
39102;SDS011;24847;48.218;16.414;2024-02-14T19:54:46;2.47;;;1.60;;
39102;SDS011;24847;48.218;16.414;2024-02-14T19:59:48;2.03;;;1.30;;
39102;SDS011;24847;48.218;16.414;2024-02-14T20:04:52;1.83;;;1.33;;
39102;SDS011;24847;48.218;16.414;2024-02-14T20:09:54;2.60;;;1.50;;
39102;SDS011;24847;48.218;16.414;2024-02-14T20:14:56;2.15;;;1.27;;
39102;SDS011;24847;48.218;16.414;2024-02-14T20:20:00;2.33;;;1.52;;
39102;SDS011;24847;48.218;16.414;2024-02-14T20:25:04;1.95;;;1.50;;
39102;SDS011;24847;48.218;16.414;2024-02-14T20:30:08;2.08;;;1.38;;
39102;SDS011;24847;48.218;16.414;2024-02-14T20:35:14;2.42;;;1.50;;
39102;SDS011;24847;48.218;16.414;2024-02-14T20:40:16;2.63;;;1.60;;
39102;SDS011;24847;48.218;16.414;2024-02-14T20:45:19;2.25;;;1.67;;
39102;SDS011;24847;48.218;16.414;2024-02-14T20:50:22;2.20;;;1.60;;
39102;SDS011;24847;48.218;16.414;2024-02-14T20:55:25;1.67;;;1.38;;
39102;SDS011;24847;48.218;16.414;2024-02-14T21:00:28;3.30;;;1.77;;
39102;SDS011;24847;48.218;16.414;2024-02-14T21:05:31;2.10;;;1.40;;
39102;SDS011;24847;48.218;16.414;2024-02-14T21:10:34;1.83;;;1.15;;
39102;SDS011;24847;48.218;16.414;2024-02-14T21:15:36;1.63;;;1.52;;
39102;SDS011;24847;48.218;16.414;2024-02-14T21:20:40;2.28;;;1.80;;
39102;SDS011;24847;48.218;16.414;2024-02-14T21:25:42;3.25;;;1.70;;
39102;SDS011;24847;48.218;16.414;2024-02-14T21:30:44;10.02;;;5.50;;
39102;SDS011;24847;48.218;16.414;2024-02-14T21:35:47;5.40;;;3.92;;
39102;SDS011;24847;48.218;16.414;2024-02-14T21:40:50;3.22;;;2.13;;
39102;SDS011;24847;48.218;16.414;2024-02-14T21:45:52;1.85;;;1.63;;
39102;SDS011;24847;48.218;16.414;2024-02-14T21:50:55;1.60;;;1.30;;
39102;SDS011;24847;48.218;16.414;2024-02-14T21:55:59;1.48;;;1.23;;
39102;SDS011;24847;48.218;16.414;2024-02-14T22:01:01;3.00;;;1.42;;
39102;SDS011;24847;48.218;16.414;2024-02-14T22:06:05;2.10;;;1.45;;
39102;SDS011;24847;48.218;16.414;2024-02-14T22:11:08;2.50;;;1.40;;
39102;SDS011;24847;48.218;16.414;2024-02-14T22:16:13;3.47;;;2.78;;
39102;SDS011;24847;48.218;16.414;2024-02-14T22:21:19;2.55;;;1.90;;
39102;SDS011;24847;48.218;16.414;2024-02-14T22:26:21;2.20;;;1.60;;
39102;SDS011;24847;48.218;16.414;2024-02-14T22:31:24;2.58;;;1.55;;
39102;SDS011;24847;48.218;16.414;2024-02-14T22:36:30;2.67;;;1.60;;
39102;SDS011;24847;48.218;16.414;2024-02-14T22:41:33;1.90;;;1.50;;
39102;SDS011;24847;48.218;16.414;2024-02-14T22:46:38;2.10;;;1.17;;
39102;SDS011;24847;48.218;16.414;2024-02-14T22:51:42;1.75;;;1.10;;
39102;SDS011;24847;48.218;16.414;2024-02-14T22:56:45;1.80;;;0.90;;
39102;SDS011;24847;48.218;16.414;2024-02-14T23:01:47;1.60;;;1.20;;
39102;SDS011;24847;48.218;16.414;2024-02-14T23:06:51;1.27;;;0.88;;
39102;SDS011;24847;48.218;16.414;2024-02-14T23:11:53;1.65;;;1.30;;
39102;SDS011;24847;48.218;16.414;2024-02-14T23:16:55;2.20;;;1.42;;
39102;SDS011;24847;48.218;16.414;2024-02-14T23:21:59;1.52;;;1.33;;
39102;SDS011;24847;48.218;16.414;2024-02-14T23:27:02;1.63;;;1.13;;
39102;SDS011;24847;48.218;16.414;2024-02-14T23:32:05;2.03;;;1.15;;
39102;SDS011;24847;48.218;16.414;2024-02-14T23:37:09;1.75;;;1.15;;
39102;SDS011;24847;48.218;16.414;2024-02-14T23:42:11;1.63;;;1.40;;
39102;SDS011;24847;48.218;16.414;2024-02-14T23:47:13;1.08;;;0.95;;
39102;SDS011;24847;48.218;16.414;2024-02-14T23:52:18;1.50;;;1.13;;
39102;SDS011;24847;48.218;16.414;2024-02-14T23:57:20;1.80;;;1.17;;
